createdAt,value
2022-08-27T00:00:56.239Z,22.90
2022-08-27T00:04:57.224Z,23.40
2022-08-27T00:08:58.115Z,23.00
2022-08-27T00:13:00.399Z,22.90
2022-08-27T00:17:01.529Z,23.20
2022-08-27T00:21:03.943Z,22.80
2022-08-27T00:25:07.617Z,23.00
2022-08-27T00:29:08.595Z,22.90
2022-08-27T00:33:10.208Z,22.90
2022-08-27T00:37:11.212Z,22.40
2022-08-27T00:41:13.431Z,22.60
2022-08-27T00:45:20.110Z,22.20
2022-08-27T00:49:28.019Z,22.20
2022-08-27T00:53:32.727Z,22.70
2022-08-27T00:57:38.243Z,22.10
2022-08-27T01:01:41.480Z,22.20
2022-08-27T01:05:44.847Z,22.70
2022-08-27T01:09:48.425Z,22.50
2022-08-27T01:14:00.426Z,22.20
2022-08-27T01:17:57.514Z,22.70
2022-08-27T01:22:05.185Z,22.40
2022-08-27T01:26:07.959Z,22.20
2022-08-27T01:30:11.704Z,22.60
2022-08-27T01:34:12.794Z,22.20
2022-08-27T01:38:18.822Z,22.60
2022-08-27T01:42:21.795Z,22.60
2022-08-27T01:46:25.414Z,22.60
2022-08-27T01:50:31.215Z,22.60
2022-08-27T01:54:33.020Z,22.50
2022-08-27T01:58:34.403Z,22.60
2022-08-27T02:02:35.696Z,22.60
2022-08-27T02:06:36.785Z,23.30
2022-08-27T02:10:39.792Z,22.50
2022-08-27T02:14:40.941Z,23.20
2022-08-27T02:18:42.724Z,23.10
2022-08-27T02:22:45.006Z,23.20
2022-08-27T02:26:46.118Z,22.70
2022-08-27T02:30:47.280Z,22.10
2022-08-27T02:34:48.275Z,22.00
2022-08-27T02:38:50.360Z,22.30
2022-08-27T02:42:52.035Z,21.90
2022-08-27T02:46:53.752Z,22.10
2022-08-27T02:50:55.222Z,22.00
2022-08-27T02:54:56.995Z,22.70
2022-08-27T02:58:59.400Z,22.40
2022-08-27T03:03:01.553Z,22.60
2022-08-27T03:07:03.324Z,22.50
2022-08-27T03:11:06.199Z,22.40
2022-08-27T03:15:09.969Z,22.60
2022-08-27T03:19:11.431Z,22.20
2022-08-27T03:23:14.604Z,21.70
2022-08-27T03:27:15.621Z,22.30
2022-08-27T03:31:21.746Z,22.20
2022-08-27T03:35:22.929Z,21.70
2022-08-27T03:39:23.931Z,21.60
2022-08-27T03:43:25.182Z,21.60
2022-08-27T03:47:26.075Z,21.90
2022-08-27T03:51:27.074Z,22.10
2022-08-27T03:55:28.164Z,22.10
2022-08-27T03:59:29.154Z,21.70
2022-08-27T04:03:30.935Z,21.30
2022-08-27T04:07:32.953Z,21.60
2022-08-27T04:11:34.637Z,20.70
2022-08-27T04:15:37.823Z,21.40
2022-08-27T04:19:38.499Z,21.90
2022-08-27T04:23:41.222Z,22.10
2022-08-27T04:27:42.826Z,22.40
2022-08-27T04:31:43.880Z,22.40
2022-08-27T04:35:44.899Z,22.30
2022-08-27T04:39:50.172Z,21.60
2022-08-27T04:43:52.089Z,21.80
2022-08-27T04:47:53.099Z,20.50
2022-08-27T04:51:54.597Z,20.20
2022-08-27T04:55:56.996Z,20.40
2022-08-27T04:59:57.970Z,20.00
2022-08-27T05:03:59.260Z,20.40
2022-08-27T05:08:00.149Z,20.70
2022-08-27T05:12:01.338Z,20.50
2022-08-27T05:16:06.155Z,20.60
2022-08-27T05:20:09.679Z,20.50
2022-08-27T05:24:11.081Z,20.50
2022-08-27T05:28:13.259Z,21.10
2022-08-27T05:32:14.303Z,20.50
2022-08-27T05:36:25.767Z,20.70
2022-08-27T05:40:27.061Z,20.90
2022-08-27T05:44:43.988Z,21.00
2022-08-27T05:48:33.296Z,20.70
2022-08-27T05:52:35.931Z,20.90
2022-08-27T05:56:38.159Z,21.30
2022-08-27T06:01:02.468Z,21.20
2022-08-27T06:05:00.770Z,20.30
2022-08-27T06:09:02.395Z,20.60
2022-08-27T06:13:03.803Z,20.80
2022-08-27T06:17:05.760Z,20.90
2022-08-27T06:21:07.592Z,20.50
2022-08-27T06:25:08.855Z,21.40
2022-08-27T06:29:12.126Z,21.40
2022-08-27T06:33:13.131Z,21.70
2022-08-27T06:37:14.136Z,21.70
2022-08-27T06:41:23.656Z,21.50
2022-08-27T06:45:21.759Z,22.10
2022-08-27T06:49:23.475Z,21.60
2022-08-27T06:53:24.691Z,21.80
2022-08-27T06:57:25.672Z,21.40
2022-08-27T07:01:30.714Z,22.10
2022-08-27T07:05:33.898Z,22.30
2022-08-27T07:09:35.073Z,22.40
2022-08-27T07:13:36.990Z,23.00
2022-08-27T07:17:40.097Z,22.70
2022-08-27T07:21:43.119Z,23.10
2022-08-27T07:25:44.841Z,22.40
2022-08-27T07:29:45.949Z,23.40
2022-08-27T07:33:51.385Z,22.50
2022-08-27T07:37:51.762Z,23.40
2022-08-27T07:42:15.930Z,23.80
2022-08-27T07:46:17.049Z,22.90
2022-08-27T07:50:18.936Z,22.50
2022-08-27T07:54:22.081Z,21.90
2022-08-27T07:58:23.165Z,22.50
2022-08-27T08:02:24.314Z,24.30
2022-08-27T08:06:25.789Z,22.90
2022-08-27T08:10:26.886Z,23.00
2022-08-27T08:14:29.947Z,22.70
2022-08-27T08:18:31.561Z,22.70
2022-08-27T08:22:32.679Z,22.40
2022-08-27T08:26:33.915Z,22.80
2022-08-27T08:30:35.340Z,24.00
2022-08-27T08:34:36.702Z,23.70
2022-08-27T08:38:39.393Z,23.50
2022-08-27T08:42:50.566Z,22.20
2022-08-27T08:46:52.270Z,21.80
2022-08-27T08:50:57.101Z,23.40
2022-08-27T08:55:13.690Z,22.10
2022-08-27T08:59:24.559Z,21.90
2022-08-27T09:03:27.480Z,22.30
2022-08-27T09:07:48.065Z,22.70
2022-08-27T09:12:04.761Z,23.30
2022-08-27T09:16:06.760Z,22.80
2022-08-27T09:20:13.340Z,22.20
2022-08-27T09:24:22.877Z,23.60
2022-08-27T09:28:45.641Z,22.70
2022-08-27T09:32:56.331Z,22.10
2022-08-27T09:37:03.686Z,22.20
2022-08-27T09:41:11.504Z,22.40
2022-08-27T09:45:19.142Z,22.40
2022-08-27T09:49:20.235Z,22.20
2022-08-27T09:53:25.699Z,22.30
2022-08-27T09:57:36.380Z,22.20
2022-08-27T10:01:50.706Z,22.20
2022-08-27T10:05:53.612Z,22.20
2022-08-27T10:09:58.529Z,22.70
2022-08-27T10:14:13.228Z,22.60
2022-08-27T10:18:18.140Z,23.10
2022-08-27T10:22:35.136Z,23.40
2022-08-27T10:26:42.940Z,23.70
2022-08-27T10:31:11.247Z,23.40
2022-08-27T10:35:25.246Z,23.30
2022-08-27T10:39:42.741Z,23.50
2022-08-27T10:43:59.602Z,23.00
2022-08-27T10:48:13.362Z,22.40
2022-08-27T10:52:37.975Z,23.10
2022-08-27T10:56:48.827Z,23.30
2022-08-27T11:01:10.622Z,22.50
2022-08-27T11:05:27.286Z,23.60
2022-08-27T11:09:40.987Z,23.00
2022-08-27T11:13:48.596Z,23.90
2022-08-27T11:17:53.490Z,23.50
2022-08-27T11:22:01.276Z,23.90
2022-08-27T11:26:04.958Z,25.60
2022-08-27T11:30:09.906Z,25.50
2022-08-27T11:34:35.197Z,24.70
2022-08-27T11:38:41.009Z,24.20
2022-08-27T11:42:47.749Z,25.60
2022-08-27T11:46:53.257Z,25.50
2022-08-27T11:51:10.271Z,26.60
2022-08-27T11:55:24.071Z,25.70
2022-08-27T11:59:31.884Z,26.90
2022-08-27T12:03:35.409Z,28.50
2022-08-27T12:07:40.711Z,27.90
2022-08-27T12:11:45.544Z,25.50
2022-08-27T12:16:01.387Z,25.40
2022-08-27T12:20:29.305Z,27.60
2022-08-27T12:24:34.256Z,28.00
2022-08-27T12:28:35.696Z,28.80
2022-08-27T12:32:40.436Z,28.10
2022-08-27T12:36:41.736Z,27.00
2022-08-27T12:40:57.282Z,27.50
2022-08-27T12:44:59.272Z,28.90
2022-08-27T12:49:36.774Z,28.90
2022-08-27T12:53:16.568Z,28.40
2022-08-27T12:57:36.364Z,28.70
2022-08-27T13:01:50.029Z,28.00
2022-08-27T13:05:53.185Z,29.40
2022-08-27T13:09:57.299Z,28.40
2022-08-27T13:14:07.026Z,27.90
2022-08-27T13:18:09.800Z,29.50
2022-08-27T13:22:13.065Z,28.60
2022-08-27T13:26:14.138Z,29.80
2022-08-27T13:30:22.971Z,29.20
2022-08-27T13:34:21.788Z,28.70
2022-08-27T13:38:25.365Z,29.90
2022-08-27T13:42:27.175Z,26.50
2022-08-27T13:46:30.548Z,27.20
2022-08-27T13:50:34.093Z,25.60
2022-08-27T13:54:35.473Z,25.60
2022-08-27T13:58:36.908Z,25.90
2022-08-27T14:02:38.125Z,26.00
2022-08-27T14:06:42.937Z,26.00
2022-08-27T14:10:47.835Z,25.30
2022-08-27T14:14:50.827Z,26.60
2022-08-27T14:19:04.557Z,26.40
2022-08-27T14:23:05.542Z,25.20
2022-08-27T14:27:13.140Z,24.70
2022-08-27T14:31:14.602Z,26.00
2022-08-27T14:35:25.148Z,25.10
2022-08-27T14:39:20.291Z,25.50
2022-08-27T14:43:24.010Z,25.40
2022-08-27T14:47:26.441Z,25.30
2022-08-27T14:51:30.763Z,25.40
2022-08-27T14:55:31.637Z,25.00
2022-08-27T14:59:33.390Z,25.00
2022-08-27T15:03:40.886Z,25.50
2022-08-27T15:07:42.239Z,25.80
2022-08-27T15:11:46.588Z,25.20
2022-08-27T15:15:47.660Z,25.40
2022-08-27T15:19:48.752Z,25.40
2022-08-27T15:23:52.071Z,25.40
2022-08-27T15:27:54.180Z,25.00
2022-08-27T15:31:55.625Z,24.70
2022-08-27T15:35:59.843Z,24.30
2022-08-27T15:40:01.122Z,23.30
2022-08-27T15:44:03.586Z,23.60
2022-08-27T15:48:05.712Z,23.80
2022-08-27T15:52:09.258Z,23.60
2022-08-27T15:56:10.353Z,23.80
2022-08-27T16:00:12.386Z,23.80
2022-08-27T16:04:14.900Z,23.20
2022-08-27T16:08:16.156Z,23.40
2022-08-27T16:12:26.900Z,23.20
2022-08-27T16:16:25.646Z,23.70
2022-08-27T16:20:26.867Z,23.90
2022-08-27T16:24:27.863Z,24.20
2022-08-27T16:28:29.060Z,23.90
2022-08-27T16:32:31.675Z,23.40
2022-08-27T16:36:32.897Z,24.30
2022-08-27T16:40:37.770Z,22.60
2022-08-27T16:44:38.909Z,22.50
2022-08-27T16:49:01.091Z,22.40
2022-08-27T16:53:08.854Z,22.10
2022-08-27T16:57:09.972Z,22.30
2022-08-27T17:01:13.256Z,22.00
2022-08-27T17:09:18.213Z,21.70
2022-08-27T17:13:22.816Z,22.10
2022-08-27T17:17:29.067Z,22.20
2022-08-27T17:21:32.224Z,22.20
2022-08-27T17:25:33.230Z,21.90
2022-08-27T17:29:34.544Z,21.50
2022-08-27T17:33:39.683Z,21.10
2022-08-27T17:37:41.489Z,21.70
2022-08-27T17:41:45.924Z,21.60
2022-08-27T17:45:48.056Z,21.80
2022-08-27T17:49:49.153Z,21.40
2022-08-27T17:53:58.473Z,21.70
2022-08-27T17:57:57.778Z,21.90
2022-08-27T18:02:00.383Z,21.50
2022-08-27T18:06:02.101Z,21.90
2022-08-27T18:10:03.869Z,20.90
2022-08-27T18:14:05.199Z,21.30
2022-08-27T18:18:09.019Z,21.60
2022-08-27T18:22:10.088Z,21.40
2022-08-27T18:26:14.345Z,21.60
2022-08-27T18:30:16.197Z,21.40
2022-08-27T18:34:20.712Z,21.80
2022-08-27T18:38:20.687Z,21.60
2022-08-27T18:42:21.724Z,21.60
2022-08-27T18:46:22.881Z,21.70
2022-08-27T18:50:24.550Z,21.40
2022-08-27T18:54:26.760Z,21.30
2022-08-27T18:58:28.093Z,21.20
2022-08-27T19:02:30.404Z,21.50
2022-08-27T19:06:32.357Z,22.10
2022-08-27T19:10:33.480Z,20.70
2022-08-27T19:14:34.543Z,21.30
2022-08-27T19:18:37.672Z,21.00
2022-08-27T19:22:39.030Z,20.90
2022-08-27T19:26:41.258Z,21.40
2022-08-27T19:30:43.668Z,20.80
2022-08-27T19:34:44.855Z,20.80
2022-08-27T19:38:49.775Z,20.60
2022-08-27T19:42:51.155Z,20.60
2022-08-27T19:46:54.860Z,21.10
2022-08-27T19:50:55.989Z,20.80
2022-08-27T19:55:13.236Z,20.30
2022-08-27T19:59:08.924Z,20.70
2022-08-27T20:03:03.440Z,21.20
2022-08-27T20:07:05.657Z,20.40
2022-08-27T20:11:06.862Z,20.60
2022-08-27T20:15:08.277Z,20.60
2022-08-27T20:19:09.927Z,20.70
2022-08-27T20:23:11.158Z,20.50
2022-08-27T20:27:12.125Z,20.90
2022-08-27T20:31:13.524Z,20.40
2022-08-27T20:35:15.967Z,20.60
2022-08-27T20:39:17.962Z,20.40
2022-08-27T20:43:20.196Z,19.90
2022-08-27T20:47:25.788Z,20.10
2022-08-27T20:51:27.255Z,20.50
2022-08-27T20:55:30.048Z,19.80
2022-08-27T20:59:50.079Z,20.20
2022-08-27T21:03:51.779Z,19.90
2022-08-27T21:07:53.674Z,20.50
2022-08-27T21:16:05.013Z,20.70
2022-08-27T21:20:08.509Z,20.40
2022-08-27T21:24:10.009Z,19.90
2022-08-27T21:28:11.933Z,20.40
2022-08-27T21:32:13.947Z,21.10
2022-08-27T21:36:15.295Z,20.70
2022-08-27T21:40:18.387Z,21.00
2022-08-27T21:44:19.495Z,21.20
2022-08-27T21:48:20.973Z,21.40
2022-08-27T21:52:23.189Z,21.50
2022-08-27T21:56:25.502Z,21.60
2022-08-27T22:00:32.281Z,21.30
2022-08-27T22:04:34.070Z,21.30
2022-08-27T22:08:35.187Z,21.10
2022-08-27T22:12:36.498Z,21.00
2022-08-27T22:16:37.796Z,21.30
2022-08-27T22:20:39.456Z,21.10
2022-08-27T22:24:40.692Z,20.50
2022-08-27T22:28:41.841Z,20.60
2022-08-27T22:32:43.618Z,20.60
2022-08-27T22:36:44.665Z,20.80
2022-08-27T22:40:48.169Z,21.10
2022-08-27T22:44:49.192Z,21.10
2022-08-27T22:48:50.724Z,20.90
2022-08-27T22:52:53.249Z,21.20
2022-08-27T22:56:54.692Z,21.10
2022-08-27T23:00:56.141Z,20.90
2022-08-27T23:04:57.703Z,20.40
2022-08-27T23:09:00.369Z,20.90
2022-08-27T23:13:01.982Z,19.80
2022-08-27T23:17:03.416Z,20.30
2022-08-27T23:25:29.438Z,20.30
2022-08-27T23:29:31.345Z,20.50
2022-08-27T23:33:32.641Z,20.30
2022-08-27T23:37:33.902Z,20.40
2022-08-27T23:41:35.276Z,20.10
2022-08-27T23:45:40.499Z,20.30
2022-08-27T23:49:39.812Z,20.10
2022-08-27T23:53:40.835Z,20.30
2022-08-27T23:57:41.839Z,20.30
